createdAt,value
2023-09-10T00:00:08.791Z,19.25
2023-09-10T00:02:37.400Z,19.22
2023-09-10T00:05:08.990Z,19.20
2023-09-10T00:07:39.242Z,19.21
2023-09-10T00:10:08.233Z,19.16
2023-09-10T00:12:36.316Z,19.13
2023-09-10T00:15:05.318Z,19.11
2023-09-10T00:17:33.895Z,19.08
2023-09-10T00:20:03.783Z,19.05
2023-09-10T00:22:33.059Z,19.00
2023-09-10T00:25:02.624Z,18.98
2023-09-10T00:27:30.015Z,18.97
2023-09-10T00:29:58.291Z,18.94
2023-09-10T00:32:26.435Z,18.95
2023-09-10T00:34:54.590Z,18.91
2023-09-10T00:37:23.209Z,18.88
2023-09-10T00:39:51.136Z,18.88
2023-09-10T00:42:24.132Z,18.85
2023-09-10T00:44:52.448Z,18.84
2023-09-10T00:47:23.167Z,18.83
2023-09-10T00:49:51.594Z,18.82
2023-09-10T00:52:23.621Z,18.82
2023-09-10T00:54:51.887Z,18.82
2023-09-10T00:57:24.952Z,18.80
2023-09-10T00:59:54.304Z,18.80
2023-09-10T01:02:22.462Z,18.76
2023-09-10T01:04:50.551Z,18.75
2023-09-10T01:07:19.344Z,18.74
2023-09-10T01:09:47.420Z,18.73
2023-09-10T01:12:24.201Z,18.73
2023-09-10T01:15:02.476Z,18.71
2023-09-10T01:17:36.856Z,18.71
2023-09-10T01:20:35.216Z,18.69
2023-09-10T01:23:05.582Z,18.64
2023-09-10T01:25:35.917Z,18.59
2023-09-10T01:28:05.854Z,18.58
2023-09-10T01:30:34.675Z,18.56
2023-09-10T01:33:09.958Z,18.54
2023-09-10T01:35:44.840Z,18.51
2023-09-10T01:38:22.282Z,18.50
2023-09-10T01:40:59.470Z,18.45
2023-09-10T01:43:28.638Z,18.42
2023-09-10T01:45:56.630Z,18.43
2023-09-10T01:48:27.494Z,18.41
2023-09-10T01:50:56.546Z,18.39
2023-09-10T01:53:25.403Z,18.36
2023-09-10T01:55:54.963Z,18.36
2023-09-10T01:58:23.035Z,18.33
2023-09-10T02:00:54.000Z,18.30
2023-09-10T02:03:26.524Z,18.28
2023-09-10T02:05:54.669Z,18.25
2023-09-10T02:08:22.669Z,18.22
2023-09-10T02:10:50.754Z,18.10
2023-09-10T02:13:20.145Z,18.12
2023-09-10T02:15:48.209Z,18.09
2023-09-10T02:18:18.403Z,18.07
2023-09-10T02:20:46.436Z,18.06
2023-09-10T02:23:14.475Z,18.06
2023-09-10T02:25:45.283Z,18.04
2023-09-10T02:28:14.787Z,18.04
2023-09-10T02:30:46.514Z,18.05
2023-09-10T02:33:14.721Z,18.02
2023-09-10T02:35:43.027Z,17.99
2023-09-10T02:38:11.077Z,17.96
2023-09-10T02:40:39.473Z,17.95
2023-09-10T02:43:07.942Z,17.94
2023-09-10T02:45:38.200Z,17.93
2023-09-10T02:48:08.708Z,17.88
2023-09-10T02:50:36.682Z,17.86
2023-09-10T02:53:04.962Z,17.84
2023-09-10T02:55:33.332Z,17.82
2023-09-10T02:58:01.312Z,17.80
2023-09-10T03:00:29.553Z,17.79
2023-09-10T03:02:58.135Z,17.80
2023-09-10T03:05:28.181Z,17.80
2023-09-10T03:08:02.019Z,17.78
2023-09-10T03:10:32.177Z,17.78
2023-09-10T03:13:00.737Z,17.76
2023-09-10T03:15:29.479Z,17.72
2023-09-10T03:17:58.475Z,17.68
2023-09-10T03:20:29.437Z,17.68
2023-09-10T03:23:00.384Z,17.66
2023-09-10T03:25:28.894Z,17.59
2023-09-10T03:27:56.966Z,17.57
2023-09-10T03:30:25.163Z,17.55
2023-09-10T03:32:53.708Z,17.55
2023-09-10T03:35:22.012Z,17.54
2023-09-10T03:37:51.840Z,17.53
2023-09-10T03:40:20.265Z,17.48
2023-09-10T03:42:49.382Z,17.45
2023-09-10T03:45:18.579Z,17.43
2023-09-10T03:47:46.726Z,17.43
2023-09-10T03:50:16.776Z,17.42
2023-09-10T03:52:45.235Z,17.43
2023-09-10T03:55:16.413Z,17.39
2023-09-10T03:57:45.030Z,17.38
2023-09-10T04:00:13.497Z,17.40
2023-09-10T04:02:44.851Z,17.40
2023-09-10T04:05:15.083Z,17.42
2023-09-10T04:07:43.220Z,17.44
2023-09-10T04:10:11.582Z,17.41
2023-09-10T04:12:41.287Z,17.40
2023-09-10T04:15:12.089Z,17.40
2023-09-10T04:17:39.965Z,17.38
2023-09-10T04:20:11.182Z,17.39
2023-09-10T04:22:39.446Z,17.40
2023-09-10T04:25:08.568Z,17.38
2023-09-10T04:27:36.623Z,17.36
2023-09-10T04:30:07.514Z,17.34
2023-09-10T04:32:35.738Z,17.34
2023-09-10T04:35:06.143Z,17.32
2023-09-10T04:37:35.216Z,17.31
2023-09-10T04:40:06.772Z,17.29
2023-09-10T04:42:35.179Z,17.29
2023-09-10T04:45:04.516Z,17.28
2023-09-10T04:47:34.261Z,17.29
2023-09-10T04:50:05.877Z,17.29
2023-09-10T04:52:34.391Z,17.30
2023-09-10T04:55:02.625Z,17.30
2023-09-10T04:57:30.747Z,17.30
2023-09-10T04:59:58.783Z,17.29
2023-09-10T05:02:28.200Z,17.28
2023-09-10T05:04:58.227Z,17.27
2023-09-10T05:07:26.455Z,17.26
2023-09-10T05:09:57.871Z,17.24
2023-09-10T05:12:26.236Z,17.24
2023-09-10T05:14:54.296Z,17.29
2023-09-10T05:17:22.681Z,17.40
2023-09-10T05:19:53.267Z,17.45
2023-09-10T05:22:23.371Z,17.46
2023-09-10T05:24:52.040Z,17.49
2023-09-10T05:27:20.724Z,17.49
2023-09-10T05:29:48.797Z,17.51
2023-09-10T05:32:17.269Z,17.48
2023-09-10T05:34:46.486Z,17.51
2023-09-10T05:37:15.041Z,17.54
2023-09-10T05:39:44.816Z,17.55
2023-09-10T05:42:12.975Z,17.57
2023-09-10T05:44:40.901Z,17.61
2023-09-10T05:47:09.014Z,17.62
2023-09-10T05:49:38.956Z,17.65
2023-09-10T05:52:07.380Z,17.67
2023-09-10T05:54:35.323Z,17.71
2023-09-10T05:57:05.439Z,17.74
2023-09-10T05:59:34.434Z,17.78
2023-09-10T06:02:03.010Z,17.80
2023-09-10T06:04:33.773Z,17.81
2023-09-10T06:07:04.763Z,17.87
2023-09-10T06:09:34.069Z,17.93
2023-09-10T06:12:05.596Z,17.95
2023-09-10T06:14:35.864Z,18.01
2023-09-10T06:17:04.761Z,18.09
2023-09-10T06:19:34.131Z,18.15
2023-09-10T06:22:02.122Z,18.18
2023-09-10T06:24:30.166Z,18.25
2023-09-10T06:26:58.297Z,18.30
2023-09-10T06:29:27.931Z,18.39
2023-09-10T06:31:56.019Z,18.48
2023-09-10T06:34:24.152Z,18.56
2023-09-10T06:36:52.240Z,18.60
2023-09-10T06:39:20.511Z,18.71
2023-09-10T06:41:48.949Z,18.76
2023-09-10T06:44:17.091Z,18.81
2023-09-10T06:46:46.557Z,18.93
2023-09-10T06:49:14.596Z,19.00
2023-09-10T06:51:42.499Z,19.07
2023-09-10T06:54:10.415Z,19.15
2023-09-10T06:56:39.049Z,19.22
2023-09-10T06:59:07.162Z,19.29
2023-09-10T07:01:35.375Z,19.36
2023-09-10T07:04:17.671Z,19.45
2023-09-10T07:06:46.162Z,19.51
2023-09-10T07:09:14.090Z,19.55
2023-09-10T07:11:44.586Z,19.62
2023-09-10T07:14:12.843Z,19.70
2023-09-10T07:16:41.119Z,19.76
2023-09-10T07:19:10.466Z,19.84
2023-09-10T07:21:39.036Z,19.91
2023-09-10T07:24:09.314Z,19.97
2023-09-10T07:26:37.830Z,20.02
2023-09-10T07:29:06.541Z,20.10
2023-09-10T07:31:35.600Z,20.20
2023-09-10T07:34:04.462Z,20.29
2023-09-10T07:36:36.128Z,20.40
2023-09-10T07:39:04.492Z,20.38
2023-09-10T07:41:33.560Z,20.43
2023-09-10T07:44:03.423Z,20.50
2023-09-10T07:46:32.551Z,20.57
2023-09-10T07:49:01.286Z,20.69
2023-09-10T07:51:29.679Z,20.75
2023-09-10T07:54:01.729Z,20.80
2023-09-10T07:56:30.489Z,20.88
2023-09-10T07:58:59.572Z,20.95
2023-09-10T08:01:27.560Z,21.02
2023-09-10T08:03:58.105Z,21.10
2023-09-10T08:06:26.259Z,21.19
2023-09-10T08:08:54.479Z,21.30
2023-09-10T08:11:24.048Z,21.38
2023-09-10T08:13:53.265Z,21.50
2023-09-10T08:16:21.321Z,21.56
2023-09-10T08:18:49.707Z,21.62
2023-09-10T08:21:17.720Z,21.70
2023-09-10T08:23:46.178Z,21.78
2023-09-10T08:26:14.699Z,21.86
2023-09-10T08:28:44.728Z,21.97
2023-09-10T08:31:13.129Z,22.07
2023-09-10T08:33:41.288Z,22.15
2023-09-10T08:36:13.210Z,22.25
2023-09-10T08:38:44.024Z,22.35
2023-09-10T08:41:21.935Z,22.49
2023-09-10T08:43:58.157Z,22.55
2023-09-10T08:46:32.584Z,22.69
2023-09-10T08:49:03.866Z,22.79
2023-09-10T08:51:33.592Z,22.86
2023-09-10T08:54:03.613Z,22.97
2023-09-10T08:56:33.081Z,23.09
2023-09-10T08:59:04.698Z,23.15
2023-09-10T09:01:34.759Z,23.23
2023-09-10T09:04:04.742Z,23.33
2023-09-10T09:06:39.763Z,23.48
2023-09-10T09:09:08.889Z,23.54
2023-09-10T09:11:38.230Z,23.61
2023-09-10T09:14:10.685Z,23.69
2023-09-10T09:16:41.726Z,23.75
2023-09-10T09:19:13.131Z,23.83
2023-09-10T09:21:42.950Z,23.90
2023-09-10T09:24:13.336Z,23.97
2023-09-10T09:26:43.006Z,24.05
2023-09-10T09:29:13.231Z,24.13
2023-09-10T09:31:41.474Z,24.22
2023-09-10T09:34:11.967Z,24.35
2023-09-10T09:36:43.689Z,24.43
2023-09-10T09:39:12.999Z,24.51
2023-09-10T09:41:41.041Z,24.56
2023-09-10T09:44:09.988Z,24.63
2023-09-10T09:46:42.395Z,24.67
2023-09-10T09:49:10.734Z,24.76
2023-09-10T09:51:42.543Z,24.86
2023-09-10T09:54:10.744Z,24.96
2023-09-10T09:56:38.792Z,25.03
2023-09-10T09:59:07.332Z,25.14
2023-09-10T10:01:37.881Z,25.23
2023-09-10T10:04:08.999Z,25.26
2023-09-10T10:06:48.584Z,25.38
2023-09-10T10:09:19.656Z,25.45
2023-09-10T10:11:48.390Z,25.56
2023-09-10T10:14:17.081Z,25.69
2023-09-10T10:16:47.356Z,25.82
2023-09-10T10:19:17.457Z,25.94
2023-09-10T10:21:46.903Z,26.05
2023-09-10T10:24:19.681Z,26.14
2023-09-10T10:26:48.727Z,26.19
2023-09-10T10:29:20.544Z,26.26
2023-09-10T10:31:57.346Z,26.33
2023-09-10T10:34:29.405Z,26.42
2023-09-10T10:37:05.799Z,26.51
2023-09-10T10:39:40.489Z,26.60
2023-09-10T10:42:11.824Z,26.67
2023-09-10T10:44:43.557Z,26.76
2023-09-10T10:47:15.610Z,26.84
2023-09-10T10:49:53.670Z,26.93
2023-09-10T10:52:24.809Z,26.98
2023-09-10T10:54:54.842Z,27.07
2023-09-10T10:57:26.317Z,27.17
2023-09-10T10:59:56.979Z,27.26
2023-09-10T11:02:26.936Z,27.37
2023-09-10T11:05:01.756Z,27.46
2023-09-10T11:07:31.528Z,27.52
2023-09-10T11:10:20.679Z,27.56
2023-09-10T11:13:06.543Z,27.67
2023-09-10T11:15:34.829Z,27.75
2023-09-10T11:18:42.780Z,27.88
2023-09-10T11:21:14.425Z,27.97
2023-09-10T11:24:04.800Z,27.99
2023-09-10T11:26:32.954Z,28.06
2023-09-10T11:29:02.490Z,28.07
2023-09-10T11:31:39.366Z,28.15
2023-09-10T11:34:41.060Z,28.25
2023-09-10T11:37:11.553Z,28.34
2023-09-10T11:39:42.248Z,28.44
2023-09-10T11:42:10.861Z,28.55
2023-09-10T11:44:41.923Z,28.60
2023-09-10T11:47:12.626Z,28.67
2023-09-10T11:49:40.521Z,28.79
2023-09-10T11:52:10.978Z,28.90
2023-09-10T11:54:40.102Z,29.05
2023-09-10T11:57:08.161Z,29.17
2023-09-10T11:59:36.554Z,29.24
2023-09-10T12:02:04.764Z,29.30
2023-09-10T12:04:34.397Z,29.37
2023-09-10T12:07:03.153Z,29.44
2023-09-10T12:09:33.532Z,29.47
2023-09-10T12:12:06.683Z,29.54
2023-09-10T12:14:36.368Z,29.62
2023-09-10T12:17:05.361Z,29.74
2023-09-10T12:19:35.900Z,29.88
2023-09-10T12:22:05.924Z,29.97
2023-09-10T12:24:38.340Z,30.03
2023-09-10T12:27:06.783Z,30.09
2023-09-10T12:29:37.233Z,30.19
2023-09-10T12:32:09.013Z,30.31
2023-09-10T12:34:37.719Z,30.44
2023-09-10T12:37:05.921Z,30.53
2023-09-10T12:39:34.915Z,30.61
2023-09-10T12:42:06.937Z,30.73
2023-09-10T12:44:40.403Z,30.87
2023-09-10T12:47:13.924Z,30.96
2023-09-10T12:49:42.862Z,31.05
2023-09-10T12:52:11.416Z,31.16
2023-09-10T12:54:41.707Z,31.29
2023-09-10T12:57:13.302Z,31.43
2023-09-10T12:59:41.574Z,31.41
2023-09-10T13:02:13.111Z,31.44
2023-09-10T13:04:43.939Z,31.54
2023-09-10T13:07:16.606Z,31.64
2023-09-10T13:09:46.134Z,31.81
2023-09-10T13:12:16.304Z,31.93
2023-09-10T13:14:44.277Z,31.91
2023-09-10T13:17:12.464Z,32.04
2023-09-10T13:19:41.574Z,32.22
2023-09-10T13:22:09.707Z,32.27
2023-09-10T13:24:37.978Z,32.30
2023-09-10T13:27:07.526Z,32.39
2023-09-10T13:29:36.935Z,32.45
2023-09-10T13:32:07.253Z,32.51
2023-09-10T13:34:36.101Z,32.71
2023-09-10T13:37:05.131Z,32.91
2023-09-10T13:39:35.131Z,33.03
2023-09-10T13:42:03.615Z,33.17
2023-09-10T13:44:32.440Z,33.33
2023-09-10T13:47:03.085Z,33.45
2023-09-10T13:49:35.161Z,33.52
2023-09-10T13:52:05.426Z,33.66
2023-09-10T13:54:33.473Z,33.77
2023-09-10T13:57:02.371Z,33.74
2023-09-10T13:59:32.871Z,33.84
2023-09-10T14:02:03.110Z,33.95
2023-09-10T14:04:31.306Z,34.09
2023-09-10T14:07:01.834Z,34.19
2023-09-10T14:09:32.138Z,34.17
2023-09-10T14:12:00.488Z,34.32
2023-09-10T14:14:31.163Z,34.48
2023-09-10T14:16:59.438Z,34.64
2023-09-10T14:19:29.041Z,34.70
2023-09-10T14:21:58.772Z,34.70
2023-09-10T14:24:29.958Z,34.73
2023-09-10T14:27:00.903Z,34.78
2023-09-10T14:29:28.949Z,34.95
2023-09-10T14:31:57.680Z,35.06
2023-09-10T14:34:25.819Z,35.16
2023-09-10T14:36:55.191Z,35.26
2023-09-10T14:39:23.371Z,35.34
2023-09-10T14:41:52.213Z,35.31
2023-09-10T14:44:22.908Z,35.31
2023-09-10T14:46:51.215Z,35.27
2023-09-10T14:49:19.091Z,35.26
2023-09-10T14:51:47.315Z,35.31
2023-09-10T14:54:16.693Z,35.18
2023-09-10T14:56:45.902Z,35.08
2023-09-10T14:59:16.526Z,35.15
2023-09-10T15:01:44.622Z,35.22
2023-09-10T15:04:13.256Z,35.17
2023-09-10T15:06:41.298Z,35.16
2023-09-10T15:09:09.472Z,35.20
2023-09-10T15:11:39.191Z,35.01
2023-09-10T15:14:07.502Z,35.02
2023-09-10T15:16:36.560Z,34.99
2023-09-10T15:19:04.426Z,35.01
2023-09-10T15:21:33.571Z,35.01
2023-09-10T15:24:03.011Z,34.94
2023-09-10T15:26:33.520Z,34.90
2023-09-10T15:29:04.306Z,34.81
2023-09-10T15:31:37.029Z,34.78
2023-09-10T15:34:08.325Z,34.73
2023-09-10T15:36:38.508Z,34.69
2023-09-10T15:39:08.887Z,34.74
2023-09-10T15:41:44.349Z,34.64
2023-09-10T15:44:19.373Z,34.44
2023-09-10T15:46:47.669Z,34.38
2023-09-10T15:49:15.568Z,34.57
2023-09-10T15:51:43.695Z,34.59
2023-09-10T15:54:11.789Z,34.49
2023-09-10T15:56:40.041Z,34.48
2023-09-10T15:59:08.532Z,34.41
2023-09-10T16:01:57.812Z,34.28
2023-09-10T16:04:26.367Z,34.11
2023-09-10T16:06:54.309Z,34.02
2023-09-10T16:09:24.888Z,33.94
2023-09-10T16:11:53.062Z,33.73
2023-09-10T16:14:21.052Z,33.63
2023-09-10T16:16:49.949Z,33.44
2023-09-10T16:19:19.285Z,33.39
2023-09-10T16:21:49.830Z,33.31
2023-09-10T16:24:18.153Z,33.25
2023-09-10T16:26:46.792Z,33.15
2023-09-10T16:29:15.522Z,33.11
2023-09-10T16:31:43.490Z,33.03
2023-09-10T16:34:11.543Z,32.87
2023-09-10T16:36:41.148Z,32.61
2023-09-10T16:39:09.346Z,32.35
2023-09-10T16:41:37.623Z,32.05
2023-09-10T16:44:08.834Z,31.71
2023-09-10T16:46:37.070Z,31.46
2023-09-10T16:49:06.675Z,31.16
2023-09-10T16:51:35.420Z,30.87
2023-09-10T16:54:05.623Z,30.60
2023-09-10T16:56:34.108Z,30.39
2023-09-10T16:59:04.267Z,30.22
2023-09-10T17:01:32.485Z,30.00
2023-09-10T17:04:00.526Z,29.79
2023-09-10T17:06:28.860Z,29.60
2023-09-10T17:08:57.178Z,29.35
2023-09-10T17:11:27.738Z,29.16
2023-09-10T17:13:57.930Z,28.98
2023-09-10T17:16:26.509Z,28.83
2023-09-10T17:18:54.794Z,28.64
2023-09-10T17:21:32.015Z,28.47
2023-09-10T17:24:01.403Z,28.28
2023-09-10T17:26:31.661Z,28.10
2023-09-10T17:29:04.653Z,27.93
2023-09-10T17:31:34.368Z,27.75
2023-09-10T17:34:06.638Z,27.59
2023-09-10T17:36:35.987Z,27.44
2023-09-10T17:39:04.148Z,27.29
2023-09-10T17:41:33.403Z,27.14
2023-09-10T17:44:04.972Z,26.98
2023-09-10T17:46:33.515Z,26.83
2023-09-10T17:49:01.696Z,26.71
2023-09-10T17:51:30.248Z,26.59
2023-09-10T17:53:58.802Z,26.45
2023-09-10T17:56:26.930Z,26.34
2023-09-10T17:58:58.697Z,26.23
2023-09-10T18:01:27.054Z,26.10
2023-09-10T18:03:55.327Z,26.01
2023-09-10T18:06:23.413Z,25.88
2023-09-10T18:08:54.751Z,25.79
2023-09-10T18:11:23.074Z,25.66
2023-09-10T18:13:50.995Z,25.58
2023-09-10T18:16:21.104Z,25.47
2023-09-10T18:18:51.444Z,25.36
2023-09-10T18:21:21.741Z,25.22
2023-09-10T18:23:49.910Z,25.17
2023-09-10T18:26:21.692Z,25.12
2023-09-10T18:28:50.043Z,25.07
2023-09-10T18:31:18.088Z,25.01
2023-09-10T18:33:50.861Z,24.97
2023-09-10T18:36:19.125Z,24.90
2023-09-10T18:38:54.809Z,24.84
2023-09-10T18:41:23.377Z,24.78
2023-09-10T18:43:53.360Z,24.70
2023-09-10T18:46:21.455Z,24.61
2023-09-10T18:48:53.713Z,24.53
2023-09-10T18:51:23.393Z,24.45
2023-09-10T18:53:54.706Z,24.39
2023-09-10T18:56:22.774Z,24.33
2023-09-10T18:58:50.822Z,24.26
2023-09-10T19:01:19.654Z,24.16
2023-09-10T19:03:50.799Z,24.08
2023-09-10T19:06:20.337Z,24.04
2023-09-10T19:08:50.305Z,24.01
2023-09-10T19:11:18.346Z,23.92
2023-09-10T19:13:47.306Z,23.83
2023-09-10T19:16:18.934Z,23.79
2023-09-10T19:18:47.592Z,23.73
2023-09-10T19:21:15.857Z,23.68
2023-09-10T19:23:45.321Z,23.64
2023-09-10T19:26:14.176Z,23.58
2023-09-10T19:28:42.317Z,23.54
2023-09-10T19:31:11.422Z,23.48
2023-09-10T19:33:39.934Z,23.42
2023-09-10T19:36:09.651Z,23.38
2023-09-10T19:38:37.759Z,23.32
2023-09-10T19:41:07.463Z,23.27
2023-09-10T19:43:37.248Z,23.23
2023-09-10T19:46:05.176Z,23.19
2023-09-10T19:48:33.418Z,23.11
2023-09-10T19:51:02.414Z,23.05
2023-09-10T19:53:30.602Z,22.99
2023-09-10T19:56:01.483Z,22.94
2023-09-10T19:58:33.865Z,22.88
2023-09-10T20:01:02.532Z,22.82
2023-09-10T20:03:31.350Z,22.78
2023-09-10T20:06:01.695Z,22.74
2023-09-10T20:08:30.365Z,22.66
2023-09-10T20:10:59.436Z,22.59
2023-09-10T20:13:33.642Z,22.51
2023-09-10T20:16:01.727Z,22.46
2023-09-10T20:18:30.317Z,22.39
2023-09-10T20:20:58.780Z,22.33
2023-09-10T20:23:29.263Z,22.25
2023-09-10T20:25:57.275Z,22.20
2023-09-10T20:28:25.157Z,22.17
2023-09-10T20:30:54.735Z,22.12
2023-09-10T20:33:22.974Z,22.08
2023-09-10T20:35:51.136Z,22.03
2023-09-10T20:38:19.815Z,22.00
2023-09-10T20:40:48.535Z,21.98
2023-09-10T20:43:16.575Z,21.96
2023-09-10T20:45:47.288Z,21.94
2023-09-10T20:48:17.045Z,21.94
2023-09-10T20:50:45.258Z,21.90
2023-09-10T20:53:13.986Z,21.86
2023-09-10T20:55:42.759Z,21.80
2023-09-10T20:58:10.773Z,21.76
2023-09-10T21:00:40.673Z,21.66
2023-09-10T21:03:26.020Z,21.63
2023-09-10T21:06:00.773Z,21.57
2023-09-10T21:08:29.576Z,21.54
2023-09-10T21:10:58.064Z,21.52
2023-09-10T21:13:26.316Z,21.49
2023-09-10T21:15:54.455Z,21.44
2023-09-10T21:18:23.477Z,21.41
2023-09-10T21:20:52.764Z,21.39
2023-09-10T21:23:22.731Z,21.35
2023-09-10T21:25:51.060Z,21.29
2023-09-10T21:28:24.089Z,21.27
2023-09-10T21:30:52.400Z,21.22
2023-09-10T21:33:20.909Z,21.19
2023-09-10T21:35:50.319Z,21.18
2023-09-10T21:38:20.552Z,21.14
2023-09-10T21:40:50.437Z,21.10
2023-09-10T21:43:18.488Z,21.05
2023-09-10T21:45:46.892Z,20.99
2023-09-10T21:48:15.372Z,20.96
2023-09-10T21:50:45.688Z,20.94
2023-09-10T21:53:13.836Z,20.90
2023-09-10T21:55:41.891Z,20.86
2023-09-10T21:58:12.126Z,20.83
2023-09-10T22:00:41.402Z,20.78
2023-09-10T22:03:10.042Z,20.73
2023-09-10T22:05:38.602Z,20.71
2023-09-10T22:08:07.191Z,20.68
2023-09-10T22:10:37.271Z,20.64
2023-09-10T22:13:06.942Z,20.59
2023-09-10T22:15:37.408Z,20.56
2023-09-10T22:18:05.599Z,20.54
2023-09-10T22:20:36.235Z,20.52
2023-09-10T22:23:04.374Z,20.48
2023-09-10T22:25:32.396Z,20.45
2023-09-10T22:28:00.607Z,20.42
2023-09-10T22:30:30.690Z,20.38
2023-09-10T22:33:01.070Z,20.36
2023-09-10T22:35:29.526Z,20.29
2023-09-10T22:37:58.802Z,20.28
2023-09-10T22:40:26.882Z,20.27
2023-09-10T22:42:55.531Z,20.23
2023-09-10T22:45:23.795Z,20.18
2023-09-10T22:47:54.642Z,20.14
2023-09-10T22:50:24.173Z,20.10
2023-09-10T22:52:52.201Z,20.10
2023-09-10T22:55:20.735Z,20.10
2023-09-10T22:57:54.127Z,20.08
2023-09-10T23:00:23.408Z,20.03
2023-09-10T23:02:50.771Z,20.00
2023-09-10T23:05:19.369Z,19.94
2023-09-10T23:07:49.310Z,19.89
2023-09-10T23:10:22.149Z,19.86
2023-09-10T23:12:53.408Z,19.83
2023-09-10T23:15:21.894Z,19.78
2023-09-10T23:17:50.007Z,19.73
2023-09-10T23:20:18.787Z,19.76
2023-09-10T23:22:58.890Z,19.76
2023-09-10T23:25:27.261Z,19.78
2023-09-10T23:27:55.205Z,19.77
2023-09-10T23:30:22.567Z,19.74
2023-09-10T23:32:53.873Z,19.72
2023-09-10T23:35:21.867Z,19.69
2023-09-10T23:37:51.670Z,19.63
2023-09-10T23:40:20.952Z,19.61
2023-09-10T23:42:49.020Z,19.61
2023-09-10T23:45:17.858Z,19.57
2023-09-10T23:47:46.060Z,19.55
2023-09-10T23:50:14.835Z,19.53
2023-09-10T23:52:43.686Z,19.51
2023-09-10T23:55:13.395Z,19.51
2023-09-10T23:57:43.946Z,19.51
